TimeCDT,TemperatureF,Dew PointF,Humidity,Sea Level PressureIn,VisibilityMPH,Wind Direction,Wind SpeedMPH,Gust SpeedMPH,PrecipitationIn,Events,Conditions,WindDirDegrees,DateUTC
12:15 AM,55.6,48.4,77,30.30,10.0,Calm,Calm,-,N/A,,Clear,0,2013-05-25 05:15:00
12:35 AM,55.6,47.8,75,30.30,10.0,Calm,Calm,-,N/A,,Clear,0,2013-05-25 05:35:00
12:55 AM,53.6,47.3,79,30.29,10.0,Calm,Calm,-,N/A,,Clear,0,2013-05-25 05:55:00
1:15 AM,54.1,48.2,80,30.29,10.0,Calm,Calm,-,N/A,,Clear,0,2013-05-25 06:15:00
1:35 AM,53.8,47.8,80,30.29,10.0,Calm,Calm,-,N/A,,Clear,0,2013-05-25 06:35:00
1:55 AM,54.0,48.6,82,30.29,10.0,Calm,Calm,-,N/A,,Clear,0,2013-05-25 06:55:00
2:15 AM,52.9,47.7,82,30.28,10.0,Calm,Calm,-,N/A,,Clear,0,2013-05-25 07:15:00
2:35 AM,52.3,47.7,84,30.28,10.0,Calm,Calm,-,N/A,,Clear,0,2013-05-25 07:35:00
2:55 AM,52.2,47.7,85,30.28,10.0,Calm,Calm,-,N/A,,Clear,0,2013-05-25 07:55:00
3:15 AM,51.8,47.7,86,30.28,10.0,Calm,Calm,-,N/A,,Clear,0,2013-05-25 08:15:00
3:35 AM,51.8,47.8,86,30.28,10.0,North,3.5,-,N/A,,Clear,10,2013-05-25 08:35:00
3:55 AM,51.8,47.8,86,30.29,10.0,Calm,Calm,-,N/A,,Clear,0,2013-05-25 08:55:00
4:15 AM,51.3,47.5,87,30.29,10.0,Calm,Calm,-,N/A,,Clear,0,2013-05-25 09:15:00
4:35 AM,50.9,47.3,87,30.27,10.0,Calm,Calm,-,N/A,,Clear,0,2013-05-25 09:35:00
4:55 AM,51.1,47.5,87,30.27,10.0,Calm,Calm,-,N/A,,Clear,0,2013-05-25 09:55:00
5:15 AM,50.2,46.8,88,30.28,10.0,Calm,Calm,-,N/A,,Clear,0,2013-05-25 10:15:00
5:35 AM,50.4,47.1,89,30.29,10.0,Calm,Calm,-,N/A,,Clear,0,2013-05-25 10:35:00
5:55 AM,50.4,47.1,89,30.30,10.0,Calm,Calm,-,N/A,,Clear,0,2013-05-25 10:55:00
6:15 AM,50.9,47.8,89,30.32,10.0,NNW,4.6,-,N/A,,Clear,340,2013-05-25 11:15:00
6:35 AM,52.3,49.3,89,30.33,10.0,NNW,4.6,-,N/A,,Clear,340,2013-05-25 11:35:00
6:55 AM,53.8,50.5,89,30.32,10.0,Calm,Calm,-,N/A,,Clear,0,2013-05-25 11:55:00
7:15 AM,56.1,52.5,88,30.32,10.0,Calm,Calm,-,N/A,,Clear,0,2013-05-25 12:15:00
7:35 AM,58.3,54.0,86,30.34,10.0,Calm,Calm,-,N/A,,Clear,0,2013-05-25 12:35:00
7:55 AM,59.4,54.0,82,30.34,10.0,North,3.5,-,N/A,,Clear,10,2013-05-25 12:55:00
8:15 AM,61.3,54.5,78,30.34,10.0,Calm,Calm,-,N/A,,Clear,0,2013-05-25 13:15:00
8:35 AM,63.9,52.5,67,30.34,10.0,ENE,3.5,-,N/A,,Clear,70,2013-05-25 13:35:00
8:55 AM,66.2,51.4,59,30.34,10.0,East,5.8,-,N/A,,Clear,100,2013-05-25 13:55:00
9:15 AM,67.8,50.0,53,30.33,10.0,ESE,8.1,-,N/A,,Clear,110,2013-05-25 14:15:00
9:35 AM,68.9,48.9,49,30.34,10.0,ENE,4.6,-,N/A,,Clear,70,2013-05-25 14:35:00
9:55 AM,70.2,48.2,46,30.34,10.0,East,5.8,-,N/A,,Clear,100,2013-05-25 14:55:00
10:15 AM,70.5,46.8,43,30.33,10.0,SSE,5.8,-,N/A,,Clear,160,2013-05-25 15:15:00
10:35 AM,70.9,47.7,44,30.32,10.0,SSE,5.8,-,N/A,,Clear,160,2013-05-25 15:35:00
10:55 AM,71.1,46.9,42,30.32,10.0,South,5.8,-,N/A,,Clear,170,2013-05-25 15:55:00
11:15 AM,71.8,47.7,42,30.32,10.0,South,5.8,-,N/A,,Clear,180,2013-05-25 16:15:00
11:35 AM,72.5,48.2,42,30.32,10.0,South,4.6,-,N/A,,Clear,190,2013-05-25 16:35:00
11:55 AM,73.6,46.6,38,30.31,10.0,East,4.6,-,N/A,,Clear,100,2013-05-25 16:55:00
12:15 PM,74.5,47.5,38,30.31,10.0,East,5.8,-,N/A,,Clear,100,2013-05-25 17:15:00
12:35 PM,74.3,47.3,38,30.31,10.0,South,4.6,-,N/A,,Clear,190,2013-05-25 17:35:00
12:55 PM,75.0,45.7,35,30.30,10.0,SSW,3.5,-,N/A,,Clear,200,2013-05-25 17:55:00
1:15 PM,76.6,46.9,35,30.28,10.0,ESE,6.9,-,N/A,,Clear,110,2013-05-25 18:15:00
1:35 PM,77.4,46.2,33,30.28,10.0,SE,6.9,-,N/A,,Clear,130,2013-05-25 18:35:00
1:55 PM,76.5,46.2,34,30.28,10.0,South,4.6,-,N/A,,Clear,190,2013-05-25 18:55:00
2:15 PM,77.0,46.4,34,30.28,10.0,SSE,4.6,-,N/A,,Clear,150,2013-05-25 19:15:00
2:35 PM,77.7,45.9,32,30.28,10.0,ESE,3.5,-,N/A,,Clear,120,2013-05-25 19:35:00
2:55 PM,79.0,45.5,31,30.27,10.0,East,5.8,-,N/A,,Clear,100,2013-05-25 19:55:00
3:15 PM,77.7,45.3,32,30.25,10.0,ESE,5.8,-,N/A,,Clear,120,2013-05-25 20:15:00
3:35 PM,79.9,46.0,30,30.24,10.0,ESE,9.2,-,N/A,,Clear,120,2013-05-25 20:35:00
3:55 PM,79.9,45.7,30,30.24,10.0,East,5.8,-,N/A,,Clear,90,2013-05-25 20:55:00
4:15 PM,79.3,45.7,30,30.24,10.0,East,6.9,-,N/A,,Clear,90,2013-05-25 21:15:00
4:35 PM,79.2,46.9,32,30.23,10.0,SE,3.5,-,N/A,,Clear,130,2013-05-25 21:35:00
4:55 PM,79.0,47.5,33,30.21,10.0,East,8.1,-,N/A,,Clear,90,2013-05-25 21:55:00
5:15 PM,77.9,47.7,34,30.20,10.0,SE,5.8,-,N/A,,Clear,130,2013-05-25 22:15:00
5:35 PM,78.1,47.3,34,30.20,10.0,SE,4.6,-,N/A,,Clear,130,2013-05-25 22:35:00
5:55 PM,77.9,46.8,33,30.20,10.0,SE,4.6,-,N/A,,Scattered Clouds,140,2013-05-25 22:55:00
6:15 PM,77.9,47.1,34,30.19,10.0,SE,6.9,-,N/A,,Scattered Clouds,130,2013-05-25 23:15:00
6:35 PM,77.2,48.6,36,30.18,10.0,ESE,6.9,-,N/A,,Clear,120,2013-05-25 23:35:00
6:55 PM,77.9,47.7,34,30.17,10.0,SSE,6.9,-,N/A,,Clear,160,2013-05-25 23:55:00
7:15 PM,76.6,48.4,37,30.16,10.0,SSE,6.9,-,N/A,,Clear,150,2013-05-26 00:15:00
7:35 PM,74.8,50.4,42,30.16,10.0,SE,5.8,-,N/A,,Clear,130,2013-05-26 00:35:00
7:55 PM,73.0,51.3,46,30.16,10.0,East,4.6,-,N/A,,Clear,100,2013-05-26 00:55:00
8:15 PM,71.8,52.7,51,30.15,10.0,ESE,4.6,-,N/A,,Clear,120,2013-05-26 01:15:00
8:35 PM,71.6,52.2,50,30.15,10.0,SE,3.5,-,N/A,,Clear,130,2013-05-26 01:35:00
8:55 PM,70.9,53.1,53,30.16,10.0,SE,3.5,-,N/A,,Clear,140,2013-05-26 01:55:00
9:15 PM,68.7,54.0,59,30.16,10.0,Calm,Calm,-,N/A,,Clear,0,2013-05-26 02:15:00
9:35 PM,66.7,55.2,66,30.17,10.0,Calm,Calm,-,N/A,,Clear,0,2013-05-26 02:35:00
9:55 PM,65.7,56.3,72,30.18,10.0,Calm,Calm,-,N/A,,Clear,0,2013-05-26 02:55:00
10:15 PM,66.9,55.9,68,30.18,10.0,Calm,Calm,-,N/A,,Clear,0,2013-05-26 03:15:00
10:35 PM,64.8,55.4,72,30.18,10.0,Calm,Calm,-,N/A,,Clear,0,2013-05-26 03:35:00
10:55 PM,63.7,55.9,76,30.19,10.0,Calm,Calm,-,N/A,,Scattered Clouds,0,2013-05-26 03:55:00
11:15 PM,63.5,56.7,78,30.18,10.0,Calm,Calm,-,N/A,,Scattered Clouds,0,2013-05-26 04:15:00
11:35 PM,63.5,57.2,80,30.18,10.0,Calm,Calm,-,N/A,,Clear,0,2013-05-26 04:35:00
11:55 PM,63.5,57.2,80,30.18,10.0,Calm,Calm,-,N/A,,Clear,0,2013-05-26 04:55:00